Time;durP1;ratioP1;P1;durP2;ratioP2;P2;SDS_P1;SDS_P2;PMS_P1;PMS_P2;Temp;Humidity;BMP_temperature;BMP_pressure;BME280_temperature;BME280_humidity;BME280_pressure;Samples;Min_cycle;Max_cycle;Signal;HPM_P1;HPM_P2
2023/06/15 00:02:14;;;;;;;7.87;3.70;;;18.40;99.90;;;;;;5012252;28;20391;-81
2023/06/15 00:04:40;;;;;;;9.15;4.45;;;18.50;99.90;;;;;;4983281;28;20777;-81
2023/06/15 00:07:06;;;;;;;8.20;3.60;;;18.60;99.90;;;;;;4972305;28;20388;-81
2023/06/15 00:09:32;;;;;;;9.20;4.30;;;18.70;99.90;;;;;;4972769;28;20419;-81
2023/06/15 00:11:57;;;;;;;8.83;4.20;;;18.70;99.90;;;;;;4972439;28;20406;-81
2023/06/15 00:14:23;;;;;;;9.23;4.57;;;18.70;99.90;;;;;;4972750;28;20881;-81
2023/06/15 00:16:52;;;;;;;9.60;4.15;;;18.70;99.90;;;;;;4981974;28;20416;-81
2023/06/15 00:19:18;;;;;;;8.70;4.20;;;18.70;99.90;;;;;;5011272;28;20516;-81
2023/06/15 00:21:47;;;;;;;10.13;4.50;;;18.80;99.90;;;;;;5011344;28;20824;-81
2023/06/15 00:24:14;;;;;;;8.52;4.43;;;18.90;99.90;;;;;;5011685;28;20408;-81
2023/06/15 00:26:39;;;;;;;8.00;4.28;;;19.00;99.90;;;;;;4974859;28;20408;-81
2023/06/15 00:29:05;;;;;;;9.95;4.47;;;19.00;99.90;;;;;;4974346;28;20460;-80
2023/06/15 00:31:30;;;;;;;9.40;4.20;;;19.00;99.90;;;;;;4989752;28;20416;-81
2023/06/15 00:33:56;;;;;;;8.27;3.90;;;19.00;99.90;;;;;;4998658;28;20389;-81
2023/06/15 00:36:22;;;;;;;10.73;4.67;;;19.00;99.90;;;;;;4997323;28;20458;-81
2023/06/15 00:38:47;;;;;;;8.30;3.87;;;19.00;99.90;;;;;;4978237;28;20874;-81
2023/06/15 00:41:13;;;;;;;9.90;4.13;;;19.00;99.90;;;;;;4972954;28;20411;-81
2023/06/15 00:43:38;;;;;;;9.07;3.70;;;19.10;99.90;;;;;;4973788;28;20397;-81
2023/06/15 00:46:04;;;;;;;9.57;4.40;;;19.00;99.90;;;;;;4972510;28;20754;-81
2023/06/15 00:48:30;;;;;;;8.50;4.13;;;19.00;99.90;;;;;;4981391;28;20379;-81
2023/06/15 00:50:56;;;;;;;8.32;4.40;;;18.90;99.90;;;;;;4996186;28;20885;-81
2023/06/15 00:53:22;;;;;;;8.93;4.20;;;18.80;99.90;;;;;;5011143;28;20397;-79
2023/06/15 00:55:49;;;;;;;9.00;4.40;;;18.90;99.90;;;;;;5010306;28;20424;-81
2023/06/15 00:58:15;;;;;;;8.45;4.45;;;18.90;99.90;;;;;;5011931;28;20471;-79
2023/06/15 01:00:41;;;;;;;10.10;4.38;;;18.90;99.90;;;;;;5011320;28;20404;-80
2023/06/15 01:03:06;;;;;;;8.77;4.00;;;18.80;99.90;;;;;;5010675;28;20438;-79
2023/06/15 01:05:35;;;;;;;8.07;4.23;;;18.80;99.90;;;;;;5010875;28;20773;-79
2023/06/15 01:08:04;;;;;;;8.93;4.70;;;18.70;99.90;;;;;;4994659;28;20481;-79
2023/06/15 01:10:31;;;;;;;9.63;4.43;;;18.60;99.90;;;;;;4991651;28;20614;-79
2023/06/15 01:13:02;;;;;;;8.68;4.40;;;18.40;99.90;;;;;;4992995;28;20779;-81
2023/06/15 01:15:27;;;;;;;8.98;4.53;;;18.20;99.90;;;;;;4993558;28;20434;-81
2023/06/15 01:17:58;;;;;;;8.40;4.30;;;18.10;99.90;;;;;;4992479;28;20863;-81
2023/06/15 01:20:32;;;;;;;8.75;4.60;;;18.00;99.90;;;;;;4974185;28;20399;-81
2023/06/15 01:26:24;;;;;;;8.80;4.47;;;17.80;99.90;;;;;;5007336;28;20802;-81
2023/06/15 01:28:50;;;;;;;9.98;4.50;;;17.80;99.90;;;;;;4972895;28;20442;-81
2023/06/15 01:31:18;;;;;;;9.00;4.10;;;17.70;99.90;;;;;;4971473;28;21256;-81
2023/06/15 01:33:52;;;;;;;8.70;4.60;;;17.70;99.90;;;;;;4972161;28;20400;-81
2023/06/15 01:36:19;;;;;;;8.93;4.60;;;17.70;99.90;;;;;;4971698;28;20424;-82
2023/06/15 01:38:47;;;;;;;9.43;4.30;;;17.70;99.90;;;;;;4971538;28;20384;-81
2023/06/15 01:41:16;;;;;;;8.90;4.57;;;17.60;99.90;;;;;;4979269;28;20442;-81
2023/06/15 01:43:42;;;;;;;9.63;4.85;;;17.60;99.90;;;;;;4990493;28;20477;-81
2023/06/15 01:46:08;;;;;;;9.43;4.50;;;17.40;99.90;;;;;;4990943;28;20395;-82
2023/06/15 01:48:34;;;;;;;9.60;4.78;;;17.20;99.90;;;;;;4991277;28;20486;-83
2023/06/15 01:51:02;;;;;;;9.15;4.25;;;17.10;99.90;;;;;;4991182;28;20494;-81
2023/06/15 01:53:27;;;;;;;9.00;4.50;;;17.00;99.90;;;;;;4990764;28;20403;-81
2023/06/15 01:55:57;;;;;;;9.17;4.60;;;16.90;99.90;;;;;;4991221;28;20879;-81
2023/06/15 01:58:22;;;;;;;8.80;4.57;;;16.80;99.90;;;;;;4991754;28;20406;-81
2023/06/15 02:00:48;;;;;;;10.27;4.65;;;16.70;99.90;;;;;;5010415;28;20404;-81
2023/06/15 02:03:14;;;;;;;10.30;5.50;;;16.60;99.90;;;;;;5010735;28;20389;-81
2023/06/15 02:05:40;;;;;;;9.90;5.05;;;16.60;99.90;;;;;;5009971;28;20998;-81
2023/06/15 02:08:09;;;;;;;9.30;4.60;;;16.50;99.90;;;;;;5010437;28;20972;-81
2023/06/15 02:10:35;;;;;;;9.20;4.90;;;16.50;99.90;;;;;;4990438;28;20402;-81
2023/06/15 02:13:01;;;;;;;9.88;5.10;;;16.60;99.90;;;;;;4989938;28;20457;-81
2023/06/15 02:15:27;;;;;;;9.70;4.90;;;16.70;99.90;;;;;;4990876;28;20473;-81
2023/06/15 02:17:58;;;;;;;8.50;4.15;;;16.70;99.90;;;;;;5009925;28;20393;-81
2023/06/15 02:20:25;;;;;;;10.70;5.15;;;16.60;99.90;;;;;;5010548;28;20412;-81
2023/06/15 02:22:52;;;;;;;9.10;5.07;;;16.40;99.90;;;;;;5009367;28;20399;-79
2023/06/15 02:25:19;;;;;;;8.80;4.53;;;16.30;99.90;;;;;;5008603;28;20396;-79
2023/06/15 02:27:45;;;;;;;11.93;4.70;;;16.10;99.90;;;;;;5008605;28;20399;-79
2023/06/15 02:30:12;;;;;;;10.43;4.80;;;16.10;99.90;;;;;;5005911;28;20389;-79
2023/06/15 02:32:39;;;;;;;10.43;4.60;;;16.10;99.90;;;;;;4975182;28;20442;-79
2023/06/15 02:35:08;;;;;;;9.10;4.60;;;16.20;99.90;;;;;;5008519;28;20893;-79
2023/06/15 02:37:33;;;;;;;10.50;5.22;;;16.00;99.90;;;;;;5001378;28;20395;-79
2023/06/15 02:39:59;;;;;;;8.23;4.50;;;15.80;99.90;;;;;;4986928;28;20406;-79
2023/06/15 02:42:24;;;;;;;10.43;4.83;;;15.80;1.00;;;;;;4988930;28;20415;-79
2023/06/15 02:44:50;;;;;;;9.93;5.00;;;15.60;1.00;;;;;;4989444;28;20421;-79
2023/06/15 02:47:16;;;;;;;9.40;4.82;;;15.60;1.00;;;;;;4988702;28;20465;-79
2023/06/15 02:49:41;;;;;;;9.63;4.90;;;15.50;1.00;;;;;;4991850;28;20399;-78
2023/06/15 02:52:07;;;;;;;9.68;5.00;;;15.50;1.00;;;;;;5008330;28;20448;-79
2023/06/15 02:54:34;;;;;;;12.77;5.80;;;15.40;1.00;;;;;;5002853;28;20421;-78
2023/06/15 02:56:59;;;;;;;13.88;5.28;;;15.40;1.00;;;;;;4988615;28;20929;-78
2023/06/15 02:59:25;;;;;;;10.32;5.63;;;15.40;1.00;;;;;;4988466;28;20402;-78
2023/06/15 03:01:52;;;;;;;10.15;5.00;;;15.20;99.90;;;;;;4988867;28;20391;-79
2023/06/15 03:04:21;;;;;;;10.85;5.10;;;15.20;99.90;;;;;;4990751;28;20751;-79
2023/06/15 03:06:49;;;;;;;11.00;5.38;;;15.20;99.90;;;;;;4996762;28;20808;-79
2023/06/15 03:09:18;;;;;;;11.10;5.20;;;15.20;99.90;;;;;;5012607;28;20423;-79
2023/06/15 03:11:44;;;;;;;9.83;5.00;;;15.10;99.90;;;;;;5012114;28;20415;-79
2023/06/15 03:14:12;;;;;;;11.02;5.72;;;15.00;99.90;;;;;;5011832;28;20385;-78
2023/06/15 03:16:46;;;;;;;11.30;5.80;;;15.00;99.90;;;;;;5012386;28;20998;-78
2023/06/15 03:19:13;;;;;;;10.80;5.50;;;14.80;99.90;;;;;;5012476;28;20442;-78
2023/06/15 03:21:38;;;;;;;10.88;5.50;;;14.80;1.00;;;;;;5012240;28;20447;-78
2023/06/15 03:24:05;;;;;;;9.67;5.33;;;14.80;1.00;;;;;;5010596;28;20388;-78
2023/06/15 03:26:33;;;;;;;11.13;6.10;;;14.80;1.00;;;;;;5012042;28;20435;-79
2023/06/15 03:28:58;;;;;;;11.75;5.95;;;14.90;1.00;;;;;;5012058;28;20406;-79
2023/06/15 03:31:28;;;;;;;10.43;5.60;;;14.90;1.00;;;;;;4999899;28;21043;-79
2023/06/15 03:33:55;;;;;;;12.10;5.82;;;14.90;1.00;;;;;;4978588;28;20425;-79
2023/06/15 03:36:24;;;;;;;9.52;5.13;;;15.10;99.90;;;;;;4992710;28;20505;-79
2023/06/15 03:38:50;;;;;;;11.88;5.88;;;15.10;99.90;;;;;;4992227;28;20460;-79
2023/06/15 03:41:15;;;;;;;11.13;5.83;;;15.10;99.90;;;;;;4992347;28;20386;-79
2023/06/15 03:43:41;;;;;;;11.52;6.18;;;15.20;99.90;;;;;;4992470;28;20398;-79
2023/06/15 03:46:06;;;;;;;10.60;5.40;;;15.30;99.90;;;;;;4991863;28;20395;-79
2023/06/15 03:48:32;;;;;;;10.80;5.80;;;15.30;99.90;;;;;;4992134;28;20387;-79
2023/06/15 03:50:58;;;;;;;12.25;5.43;;;15.40;99.90;;;;;;4992300;28;21065;-79
2023/06/15 03:53:26;;;;;;;12.05;6.00;;;15.50;99.90;;;;;;4990949;28;20863;-79
2023/06/15 03:55:52;;;;;;;11.15;5.70;;;15.60;99.90;;;;;;4991061;28;20485;-79
2023/06/15 03:58:17;;;;;;;11.00;5.37;;;15.80;99.90;;;;;;4991192;28;20813;-78
2023/06/15 04:00:45;;;;;;;9.70;5.30;;;15.80;99.90;;;;;;5011554;28;20393;-79
2023/06/15 04:03:12;;;;;;;11.43;5.80;;;15.90;99.90;;;;;;4994638;28;20398;-79
2023/06/15 04:05:37;;;;;;;10.50;5.93;;;16.00;94.70;;;;;;4991790;28;20969;-82
2023/06/15 04:08:03;;;;;;;8.95;4.95;;;16.00;29.90;;;;;;4991497;28;20399;-79
2023/06/15 04:10:29;;;;;;;10.90;5.50;;;16.00;1.00;;;;;;4991986;28;20430;-79
2023/06/15 04:12:54;;;;;;;10.00;5.40;;;16.10;1.00;;;;;;4990804;28;20899;-79
2023/06/15 04:15:20;;;;;;;10.50;5.60;;;16.20;1.00;;;;;;4978471;28;20501;-78
2023/06/15 04:17:48;;;;;;;9.82;4.90;;;16.40;1.00;;;;;;4991087;28;20459;-79
2023/06/15 04:20:14;;;;;;;11.00;5.45;;;16.50;1.00;;;;;;4992013;28;20909;-80
2023/06/15 04:22:40;;;;;;;18.42;7.82;;;16.50;1.00;;;;;;4993718;28;20386;-79
2023/06/15 04:25:06;;;;;;;14.80;6.97;;;16.50;1.00;;;;;;4986446;28;20411;-75
2023/06/15 04:27:34;;;;;;;12.83;7.00;;;16.70;1.00;;;;;;4977320;28;20505;-75
2023/06/15 04:30:00;;;;;;;16.60;7.30;;;16.80;1.00;;;;;;4973880;28;20422;-75
2023/06/15 04:32:30;;;;;;;16.35;7.07;;;16.90;1.00;;;;;;4990597;28;20398;-75
2023/06/15 04:34:56;;;;;;;12.82;6.05;;;17.00;1.00;;;;;;4975342;28;20420;-75
2023/06/15 04:37:23;;;;;;;10.00;5.30;;;17.10;1.00;;;;;;4971932;28;20428;-75
2023/06/15 04:39:49;;;;;;;9.25;4.80;;;17.20;1.00;;;;;;4970812;28;20418;-75
2023/06/15 04:42:17;;;;;;;12.35;5.00;;;17.50;1.00;;;;;;4984699;28;20414;-75
2023/06/15 04:44:43;;;;;;;9.20;4.70;;;17.70;1.00;;;;;;4974506;28;20497;-74
2023/06/15 04:47:09;;;;;;;9.88;5.00;;;17.80;99.90;;;;;;4971192;28;20501;-75
2023/06/15 04:49:34;;;;;;;9.83;5.23;;;17.90;99.90;;;;;;4978384;28;20412;-74
2023/06/15 04:52:00;;;;;;;11.07;5.40;;;18.00;99.90;;;;;;4972206;28;20407;-76
2023/06/15 04:54:25;;;;;;;11.65;5.60;;;18.00;99.90;;;;;;4973257;28;20484;-75
2023/06/15 04:56:51;;;;;;;9.30;4.63;;;18.40;99.90;;;;;;4994643;28;20426;-74
2023/06/15 04:59:16;;;;;;;11.63;5.50;;;19.10;99.90;;;;;;4996194;28;20421;-75
2023/06/15 05:01:42;;;;;;;10.90;5.10;;;19.70;99.90;;;;;;4971212;28;20909;-75
2023/06/15 05:04:08;;;;;;;9.10;5.28;;;20.80;99.90;;;;;;4974105;28;20413;-75
2023/06/15 05:06:33;;;;;;;12.00;5.70;;;21.70;1.00;;;;;;4973959;28;20426;-74
2023/06/15 05:08:59;;;;;;;14.83;6.30;;;22.60;1.00;;;;;;4961298;28;20468;-75
2023/06/15 05:11:24;;;;;;;10.10;5.83;;;23.10;1.00;;;;;;4951633;28;20406;-80
2023/06/15 05:13:50;;;;;;;10.32;5.07;;;23.70;1.00;;;;;;4958958;28;20513;-80
2023/06/15 05:16:16;;;;;;;9.18;4.82;;;23.90;1.00;;;;;;4971400;28;20580;-79
2023/06/15 05:18:42;;;;;;;10.05;5.78;;;24.00;1.00;;;;;;4971227;28;20419;-79
2023/06/15 05:21:07;;;;;;;10.33;4.93;;;24.80;1.00;;;;;;4971539;28;20509;-78
2023/06/15 05:23:33;;;;;;;10.50;5.50;;;25.40;1.00;;;;;;4970505;28;20880;-78
2023/06/15 05:25:59;;;;;;;10.13;5.90;;;25.70;1.00;;;;;;4970228;28;20432;-78
2023/06/15 05:28:24;;;;;;;9.35;4.72;;;25.90;1.00;;;;;;4968990;28;20982;-78
2023/06/15 05:30:50;;;;;;;10.10;4.70;;;25.80;1.00;;;;;;4966406;28;20412;-78
2023/06/15 05:33:17;;;;;;;11.15;5.28;;;25.70;1.00;;;;;;4970496;28;20526;-78
2023/06/15 05:35:43;;;;;;;9.93;5.03;;;25.70;1.00;;;;;;4970109;28;20423;-78
2023/06/15 05:38:08;;;;;;;8.77;4.60;;;25.70;1.00;;;;;;4969856;28;20818;-77
2023/06/15 05:40:34;;;;;;;9.53;5.40;;;25.70;1.00;;;;;;4970455;28;20869;-78
2023/06/15 05:42:59;;;;;;;10.13;5.18;;;26.00;1.00;;;;;;4969707;28;20411;-78
2023/06/15 05:45:25;;;;;;;10.35;5.60;;;25.40;1.00;;;;;;4969303;28;20793;-78
2023/06/15 05:47:50;;;;;;;9.83;4.70;;;25.70;1.00;;;;;;4969628;28;20404;-78
2023/06/15 05:50:16;;;;;;;9.00;4.90;;;26.30;1.00;;;;;;4970051;28;20832;-78
2023/06/15 05:52:42;;;;;;;9.30;5.17;;;27.40;1.00;;;;;;4952198;28;20762;-78
2023/06/15 05:55:07;;;;;;;9.65;5.25;;;27.90;1.00;;;;;;4969226;28;20411;-78
2023/06/15 05:57:34;;;;;;;9.90;4.65;;;28.50;1.00;;;;;;4969340;28;20431;-78
2023/06/15 05:59:59;;;;;;;10.80;5.10;;;29.10;1.00;;;;;;4970184;28;20424;-78
2023/06/15 06:02:25;;;;;;;9.33;5.50;;;29.60;1.00;;;;;;4969357;28;20428;-78
2023/06/15 06:04:51;;;;;;;10.30;5.10;;;29.40;1.00;;;;;;4965179;28;20438;-79
2023/06/15 06:07:16;;;;;;;10.00;5.20;;;28.80;1.00;;;;;;4969868;28;20402;-78
2023/06/15 06:09:42;;;;;;;9.83;5.20;;;28.40;1.00;;;;;;4969136;28;20396;-78
2023/06/15 06:12:08;;;;;;;9.97;5.77;;;27.80;1.00;;;;;;4969531;28;20392;-78
2023/06/15 06:14:33;;;;;;;11.70;5.73;;;27.50;1.00;;;;;;4969666;28;20399;-78
2023/06/15 06:16:59;;;;;;;9.20;5.40;;;27.00;1.00;;;;;;4969003;28;20420;-78
2023/06/15 06:19:25;;;;;;;10.80;5.43;;;27.20;1.00;;;;;;4970057;28;20575;-78
2023/06/15 06:21:50;;;;;;;10.48;5.60;;;27.80;1.00;;;;;;4969284;28;20396;-79
2023/06/15 06:24:16;;;;;;;9.52;5.30;;;27.70;1.00;;;;;;4970121;28;20403;-78
2023/06/15 06:26:42;;;;;;;10.63;5.03;;;27.90;1.00;;;;;;4969668;28;20470;-78
2023/06/15 06:29:08;;;;;;;10.73;5.10;;;29.00;1.00;;;;;;4971355;28;20403;-79
2023/06/15 06:34:09;;;;;;;9.70;5.10;;;29.30;1.00;;;;;;4816229;23;20444;-75
2023/06/15 06:36:34;;;;;;;8.55;4.72;;;29.30;1.00;;;;;;4997244;28;20919;-75
2023/06/15 06:39:00;;;;;;;11.48;4.90;;;29.20;1.00;;;;;;4995945;28;20397;-75
2023/06/15 06:41:26;;;;;;;10.63;4.63;;;28.20;1.00;;;;;;4989758;28;20403;-75
2023/06/15 06:43:52;;;;;;;9.17;5.00;;;28.40;1.00;;;;;;5006635;28;20424;-76
2023/06/15 06:46:18;;;;;;;10.90;4.72;;;29.00;1.00;;;;;;5008784;28;20392;-76
2023/06/15 06:48:43;;;;;;;9.50;5.23;;;29.60;99.90;;;;;;5008613;28;20428;-76
2023/06/15 06:51:08;;;;;;;10.50;5.70;;;30.30;99.90;;;;;;5001448;28;20386;-76
2023/06/15 06:53:35;;;;;;;10.80;5.50;;;30.80;99.90;;;;;;4988769;28;20386;-76
2023/06/15 06:56:00;;;;;;;8.80;5.00;;;30.50;99.90;;;;;;4989145;28;20418;-76
2023/06/15 06:58:27;;;;;;;13.10;5.00;;;30.80;99.90;;;;;;4990526;28;20739;-75
2023/06/15 07:00:53;;;;;;;11.50;4.95;;;30.80;99.90;;;;;;4989162;28;20882;-74
2023/06/15 07:03:19;;;;;;;9.00;4.57;;;31.50;99.90;;;;;;4988457;28;20535;-74
2023/06/15 07:05:46;;;;;;;9.60;4.95;;;32.10;99.90;;;;;;4989562;28;20832;-76
2023/06/15 07:08:11;;;;;;;9.52;4.82;;;31.10;99.90;;;;;;4995898;28;20532;-76
2023/06/15 07:10:37;;;;;;;8.80;4.80;;;30.80;99.90;;;;;;5008702;28;20839;-74
2023/06/15 07:13:02;;;;;;;10.70;5.27;;;31.00;99.90;;;;;;5008986;28;20397;-75
2023/06/15 07:15:31;;;;;;;13.30;5.03;;;31.10;99.90;;;;;;5008785;28;20397;-75
2023/06/15 07:17:57;;;;;;;10.93;5.30;;;31.00;99.90;;;;;;5008862;28;20404;-75
2023/06/15 07:20:22;;;;;;;10.35;5.20;;;31.20;99.90;;;;;;5008952;28;20399;-75
2023/06/15 07:22:48;;;;;;;9.52;5.10;;;32.10;99.90;;;;;;5008340;28;20400;-75
2023/06/15 07:25:13;;;;;;;11.67;5.30;;;33.10;99.90;;;;;;5008334;28;20404;-75
2023/06/15 07:27:40;;;;;;;10.65;5.53;;;33.40;99.90;;;;;;5008538;28;20873;-75
2023/06/15 07:30:06;;;;;;;9.90;5.00;;;34.40;99.90;;;;;;5008395;28;20766;-75
2023/06/15 07:32:31;;;;;;;11.00;5.28;;;33.90;99.90;;;;;;5009390;28;20475;-76
2023/06/15 07:34:57;;;;;;;8.57;4.90;;;33.60;99.90;;;;;;5009137;28;20492;-76
2023/06/15 07:37:22;;;;;;;9.70;4.90;;;34.00;99.90;;;;;;5008444;28;20901;-76
2023/06/15 07:39:48;;;;;;;10.27;4.83;;;34.30;99.90;;;;;;5008740;28;20822;-76
2023/06/15 07:42:14;;;;;;;8.27;4.72;;;34.30;99.90;;;;;;5008671;28;20417;-76
2023/06/15 07:44:39;;;;;;;11.13;5.10;;;34.30;99.90;;;;;;5008334;28;20397;-75
2023/06/15 07:47:07;;;;;;;10.67;5.13;;;32.80;99.90;;;;;;5007780;28;20397;-75
2023/06/15 07:49:33;;;;;;;9.95;5.35;;;32.50;99.90;;;;;;5008606;28;20411;-76
2023/06/15 07:51:58;;;;;;;12.43;4.90;;;33.30;99.90;;;;;;5011795;28;20435;-76
2023/06/15 07:54:24;;;;;;;10.83;5.40;;;34.10;99.90;;;;;;5011813;28;20393;-76
2023/06/15 07:56:50;;;;;;;9.30;5.50;;;34.70;99.90;;;;;;5011928;28;20515;-76
2023/06/15 07:59:15;;;;;;;9.98;5.10;;;34.30;99.90;;;;;;5011656;28;20409;-76
2023/06/15 08:01:41;;;;;;;10.10;4.93;;;32.90;99.90;;;;;;5013070;28;20404;-76
2023/06/15 08:04:06;;;;;;;10.63;5.00;;;32.90;99.90;;;;;;5015394;28;20391;-76
2023/06/15 08:06:32;;;;;;;10.43;4.97;;;33.20;99.90;;;;;;5015852;28;20381;-77
2023/06/15 08:08:57;;;;;;;10.53;5.10;;;33.60;99.90;;;;;;5016945;28;20443;-77
2023/06/15 08:11:23;;;;;;;10.02;5.88;;;33.40;99.90;;;;;;5015885;28;20443;-77
2023/06/15 08:13:48;;;;;;;7.90;4.57;;;33.40;99.90;;;;;;5011684;28;20412;-77
2023/06/15 08:16:14;;;;;;;9.00;4.90;;;33.70;99.90;;;;;;5011502;28;20424;-77
2023/06/15 08:18:39;;;;;;;10.65;5.20;;;32.90;99.90;;;;;;5011703;28;20392;-77
2023/06/15 08:21:05;;;;;;;9.50;4.60;;;32.40;99.90;;;;;;5011345;28;20400;-77
2023/06/15 08:23:30;;;;;;;9.10;4.67;;;33.20;99.90;;;;;;5011523;28;20409;-77
2023/06/15 08:25:56;;;;;;;11.20;5.60;;;33.80;99.90;;;;;;5011899;28;20443;-77
2023/06/15 08:28:22;;;;;;;8.10;4.30;;;34.20;99.90;;;;;;5011332;28;20404;-76
2023/06/15 08:30:47;;;;;;;11.10;4.90;;;32.90;99.90;;;;;;5011268;28;20393;-76
2023/06/15 08:33:13;;;;;;;10.13;4.40;;;32.90;99.90;;;;;;5011244;28;20754;-76
2023/06/15 08:35:38;;;;;;;9.20;4.90;;;32.90;99.90;;;;;;5010656;28;20416;-76
2023/06/15 08:38:04;;;;;;;10.15;4.80;;;33.10;99.90;;;;;;5011123;28;20393;-77
2023/06/15 08:40:30;;;;;;;10.40;4.50;;;34.40;99.90;;;;;;5011262;28;20919;-77
2023/06/15 08:42:58;;;;;;;8.80;4.73;;;34.30;99.90;;;;;;5011231;28;20404;-77
2023/06/15 08:45:30;;;;;;;9.23;4.80;;;35.20;99.90;;;;;;5011183;28;20773;-77
2023/06/15 08:47:57;;;;;;;10.45;5.13;;;35.00;99.90;;;;;;5011527;28;20399;-77
2023/06/15 08:50:23;;;;;;;9.50;5.20;;;34.90;99.90;;;;;;5011042;28;20400;-77
2023/06/15 08:52:48;;;;;;;8.50;4.10;;;34.20;99.90;;;;;;5010826;28;20389;-77
2023/06/15 08:55:16;;;;;;;10.32;4.20;;;33.90;99.90;;;;;;5010923;28;20389;-77
2023/06/15 08:57:41;;;;;;;11.00;5.35;;;33.80;99.90;;;;;;5010778;28;20466;-77
2023/06/15 09:00:10;;;;;;;9.70;4.90;;;34.60;99.90;;;;;;5010542;28;20389;-77
2023/06/15 09:02:46;;;;;;;8.30;4.28;;;35.20;99.90;;;;;;5009537;28;20749;-77
2023/06/15 09:05:12;;;;;;;9.23;5.00;;;34.80;99.90;;;;;;5010581;28;20397;-77
2023/06/15 09:07:38;;;;;;;8.57;4.15;;;35.20;99.90;;;;;;5010545;28;20497;-77
2023/06/15 09:10:20;;;;;;;8.70;4.60;;;35.60;99.90;;;;;;5010790;28;20400;-77
2023/06/15 09:12:53;;;;;;;10.35;5.30;;;35.60;99.90;;;;;;5010527;28;20497;-77
2023/06/15 09:15:21;;;;;;;9.73;5.15;;;35.90;99.90;;;;;;5009970;28;20428;-77
2023/06/15 09:17:53;;;;;;;10.13;4.95;;;35.30;99.90;;;;;;5009951;28;20389;-77
2023/06/15 09:20:20;;;;;;;8.88;4.90;;;35.30;99.90;;;;;;5010515;28;20400;-77
2023/06/15 09:22:47;;;;;;;9.18;4.70;;;35.40;99.90;;;;;;5010703;28;20405;-77
2023/06/15 09:25:14;;;;;;;8.70;4.93;;;35.90;99.90;;;;;;5010211;28;20802;-77
2023/06/15 09:27:40;;;;;;;11.63;5.40;;;36.40;99.90;;;;;;5009983;28;20400;-77
2023/06/15 09:30:07;;;;;;;8.17;4.10;;;35.40;99.90;;;;;;4992592;28;20393;-77
2023/06/15 09:32:32;;;;;;;11.43;4.80;;;35.70;99.90;;;;;;5010059;28;20389;-77
2023/06/15 09:34:58;;;;;;;9.50;4.37;;;36.30;99.90;;;;;;5010294;28;20411;-77
2023/06/15 09:37:27;;;;;;;9.23;4.50;;;35.90;99.90;;;;;;5010212;28;20901;-77
2023/06/15 09:39:53;;;;;;;8.65;4.30;;;36.20;99.90;;;;;;5009964;28;20408;-77
2023/06/15 09:42:26;;;;;;;10.23;4.85;;;35.90;99.90;;;;;;5011532;28;20392;-77
2023/06/15 09:45:05;;;;;;;8.00;4.40;;;35.70;99.90;;;;;;5009895;28;20483;-77
2023/06/15 09:47:31;;;;;;;8.75;4.85;;;36.30;99.90;;;;;;5010015;28;20395;-77
2023/06/15 09:50:00;;;;;;;8.40;4.40;;;36.40;99.90;;;;;;5010684;28;20820;-77
2023/06/15 09:52:25;;;;;;;9.02;4.90;;;35.90;99.90;;;;;;5010973;28;20404;-77
2023/06/15 09:54:53;;;;;;;8.30;4.50;;;36.70;99.90;;;;;;5011492;28;20392;-77
2023/06/15 09:57:19;;;;;;;8.03;4.30;;;36.30;99.90;;;;;;5012563;28;21019;-77
2023/06/15 09:59:48;;;;;;;7.97;3.90;;;35.40;99.90;;;;;;5012092;28;20425;-77
2023/06/15 10:02:17;;;;;;;9.20;4.63;;;34.60;99.90;;;;;;5011914;28;20408;-75
2023/06/15 10:04:46;;;;;;;8.05;4.00;;;32.60;99.90;;;;;;5012758;28;20401;-76
2023/06/15 10:07:13;;;;;;;9.35;4.50;;;31.00;99.90;;;;;;5011037;28;20397;-77
2023/06/15 10:09:49;;;;;;;7.32;3.95;;;30.60;99.90;;;;;;5010956;28;20913;-74
2023/06/15 10:12:25;;;;;;;8.15;3.90;;;31.90;99.90;;;;;;5009851;28;20412;-76
2023/06/15 10:15:07;;;;;;;7.78;4.07;;;33.30;99.90;;;;;;5010717;28;20403;-75
2023/06/15 10:17:34;;;;;;;8.82;4.22;;;34.60;99.90;;;;;;5009622;28;20421;-76
2023/06/15 10:20:23;;;;;;;8.02;3.90;;;35.30;99.90;;;;;;5009149;28;20392;-76
2023/06/15 10:23:04;;;;;;;8.18;4.20;;;34.30;99.90;;;;;;5008628;28;20503;-76
2023/06/15 10:25:33;;;;;;;8.47;4.57;;;32.70;99.90;;;;;;5009005;28;20865;-76
2023/06/15 10:28:02;;;;;;;8.70;4.30;;;31.60;99.90;;;;;;5008744;28;20428;-76
2023/06/15 10:30:31;;;;;;;8.97;4.57;;;30.70;99.90;;;;;;5009808;28;20392;-76
2023/06/15 10:33:08;;;;;;;8.20;4.07;;;29.80;99.90;;;;;;5014278;28;20393;-76
2023/06/15 10:35:53;;;;;;;8.82;4.40;;;29.10;99.90;;;;;;5009182;28;20409;-76
2023/06/15 10:38:35;;;;;;;8.80;4.60;;;28.40;99.90;;;;;;5009212;28;20418;-75
2023/06/15 10:41:03;;;;;;;9.30;4.60;;;28.20;99.90;;;;;;5008803;28;20396;-75
2023/06/15 10:43:28;;;;;;;10.10;4.55;;;28.10;99.90;;;;;;5008668;28;20926;-75
2023/06/15 10:45:54;;;;;;;8.93;4.10;;;27.70;99.90;;;;;;5010373;28;20396;-75
2023/06/15 10:48:26;;;;;;;9.40;4.73;;;27.80;99.90;;;;;;5009208;28;20381;-75
2023/06/15 10:51:01;;;;;;;8.52;4.88;;;28.10;99.90;;;;;;5009211;28;20381;-75
2023/06/15 10:53:28;;;;;;;7.80;3.97;;;28.30;99.90;;;;;;5009952;28;20393;-75
2023/06/15 10:55:55;;;;;;;8.98;5.10;;;29.10;99.90;;;;;;5009269;28;20423;-75
2023/06/15 10:58:21;;;;;;;8.57;4.40;;;29.60;99.90;;;;;;5009666;28;20397;-75
2023/06/15 11:01:09;;;;;;;9.07;4.03;;;29.80;99.90;;;;;;5009708;28;20707;-76
2023/06/15 11:03:35;;;;;;;9.80;4.40;;;30.10;99.90;;;;;;5009478;28;20480;-76
2023/06/15 11:06:35;;;;;;;7.90;4.20;;;30.40;99.90;;;;;;5009217;28;20392;-76
2023/06/15 11:09:14;;;;;;;9.10;4.50;;;30.80;99.90;;;;;;5009435;28;20398;-76
2023/06/15 11:11:42;;;;;;;9.00;4.40;;;30.50;99.90;;;;;;5009325;28;20393;-76
2023/06/15 11:14:21;;;;;;;7.82;3.83;;;30.10;99.90;;;;;;5003694;28;20474;-76
2023/06/15 11:17:08;;;;;;;11.75;5.25;;;29.90;99.90;;;;;;5007135;28;20417;-76
2023/06/15 11:19:42;;;;;;;8.50;4.15;;;29.70;99.90;;;;;;5003861;28;20907;-76
2023/06/15 11:22:11;;;;;;;8.10;4.10;;;29.60;99.90;;;;;;5008313;28;20509;-76
2023/06/15 11:24:38;;;;;;;8.13;3.83;;;29.20;99.90;;;;;;5008498;28;20432;-75
2023/06/15 11:27:05;;;;;;;8.18;4.13;;;28.70;99.90;;;;;;5012635;28;20435;-75
2023/06/15 11:29:34;;;;;;;8.35;4.60;;;28.40;99.90;;;;;;5012862;28;20891;-75
2023/06/15 11:32:04;;;;;;;8.80;4.40;;;28.00;99.90;;;;;;5012805;28;20431;-75
2023/06/15 11:34:30;;;;;;;8.75;4.20;;;27.90;99.90;;;;;;5013063;28;20449;-75
2023/06/15 11:36:58;;;;;;;8.13;4.20;;;28.20;99.90;;;;;;5008093;28;20424;-75
2023/06/15 11:39:26;;;;;;;8.03;3.87;;;28.70;99.90;;;;;;5012601;28;20389;-75
2023/06/15 11:41:53;;;;;;;10.68;4.50;;;29.20;99.90;;;;;;5003463;28;20403;-75
2023/06/15 11:44:19;;;;;;;9.52;4.28;;;29.60;99.90;;;;;;5013054;28;20763;-75
2023/06/15 11:46:59;;;;;;;9.68;4.32;;;29.80;99.90;;;;;;5013494;28;20494;-75
2023/06/15 11:49:31;;;;;;;7.85;4.10;;;29.30;99.90;;;;;;5013796;28;20387;-75
2023/06/15 11:51:56;;;;;;;10.00;4.53;;;29.40;99.90;;;;;;5013963;28;20393;-75
2023/06/15 11:54:24;;;;;;;8.70;4.40;;;29.30;99.90;;;;;;5011875;28;20400;-75
2023/06/15 11:56:51;;;;;;;8.20;3.70;;;29.50;99.90;;;;;;5011647;28;20439;-75
2023/06/15 11:59:17;;;;;;;8.30;4.00;;;29.00;99.90;;;;;;5012429;28;20396;-75
2023/06/15 12:01:44;;;;;;;8.20;4.07;;;28.90;99.90;;;;;;5005953;28;20527;-75
2023/06/15 12:04:12;;;;;;;13.23;3.92;;;28.60;99.90;;;;;;5012489;28;20988;-77
2023/06/15 12:06:42;;;;;;;7.93;3.90;;;28.20;99.90;;;;;;4995212;28;20405;-77
2023/06/15 12:09:08;;;;;;;9.70;4.05;;;28.30;99.90;;;;;;5012625;28;20393;-78
2023/06/15 12:11:34;;;;;;;8.20;4.10;;;28.80;99.90;;;;;;5012328;28;20408;-77
2023/06/15 12:14:02;;;;;;;8.32;3.90;;;29.50;99.90;;;;;;4998302;28;20729;-78
2023/06/15 12:16:30;;;;;;;9.37;4.10;;;29.70;99.90;;;;;;4993747;28;20422;-78
2023/06/15 12:18:59;;;;;;;8.52;4.15;;;30.10;99.90;;;;;;5001840;28;20408;-78
2023/06/15 12:21:32;;;;;;;11.43;5.43;;;30.00;99.90;;;;;;4995539;28;20495;-77
2023/06/15 12:24:00;;;;;;;9.48;4.35;;;29.90;99.90;;;;;;5012222;28;20440;-77
2023/06/15 12:26:32;;;;;;;9.10;4.15;;;30.20;99.90;;;;;;5012670;28;20393;-77
2023/06/15 12:28:58;;;;;;;7.88;3.50;;;30.40;99.90;;;;;;5012486;28;20400;-76
2023/06/15 12:31:32;;;;;;;7.82;3.67;;;30.60;99.90;;;;;;5011002;28;20451;-76
2023/06/15 12:33:58;;;;;;;11.63;4.13;;;30.50;99.90;;;;;;5012443;28;20479;-76
2023/06/15 12:36:26;;;;;;;8.52;3.20;;;30.10;99.90;;;;;;5012303;28;20416;-76
2023/06/15 12:38:51;;;;;;;8.40;3.90;;;29.50;99.90;;;;;;5012853;28;20392;-76
2023/06/15 12:41:18;;;;;;;8.25;3.38;;;29.30;99.90;;;;;;5012067;28;20503;-78
2023/06/15 12:43:46;;;;;;;7.50;3.70;;;29.40;99.90;;;;;;5011289;28;20420;-79
2023/06/15 12:46:12;;;;;;;8.77;3.97;;;29.60;99.90;;;;;;5032700;28;20424;-78
2023/06/15 12:48:39;;;;;;;7.87;3.70;;;29.50;99.90;;;;;;5034280;28;20377;-78
2023/06/15 12:51:05;;;;;;;7.00;3.38;;;29.70;99.90;;;;;;5033017;28;20417;-78
2023/06/15 12:53:30;;;;;;;7.90;3.35;;;29.40;99.90;;;;;;5029373;28;20567;-78